Time;durP1;ratioP1;P1;durP2;ratioP2;P2;SDS_P1;SDS_P2;PMS_P1;PMS_P2;Temp;Humidity;BMP_temperature;BMP_pressure;BME280_temperature;BME280_humidity;BME280_pressure;Samples;Min_cycle;Max_cycle;Signal;HPM_P1;HPM_P2
2022/04/21 00:00:18;;;;;;;0.70;0.70;;;;;;;21.54;32.13;101199.09;5010786;28;20069;-72
2022/04/21 00:02:43;;;;;;;2.75;1.08;;;;;;;21.54;32.39;101198.28;5010683;28;20390;-72
2022/04/21 00:05:10;;;;;;;1.10;1.00;;;;;;;21.54;32.58;101196.31;5011972;28;20421;-72
2022/04/21 00:07:36;;;;;;;1.02;0.90;;;;;;;21.53;32.52;101185.56;5011821;28;20101;-72
2022/04/21 00:10:03;;;;;;;1.00;1.00;;;;;;;21.53;32.36;101188.31;5011109;28;20129;-72
2022/04/21 00:12:28;;;;;;;1.15;0.95;;;;;;;21.52;32.21;101187.47;5010776;28;20068;-73
2022/04/21 00:14:54;;;;;;;0.82;0.82;;;;;;;21.52;32.44;101187.47;5010561;28;20057;-72
2022/04/21 00:17:20;;;;;;;0.80;0.75;;;;;;;21.52;32.58;101189.41;5009662;28;20445;-72
2022/04/21 00:19:45;;;;;;;0.88;0.88;;;;;;;21.51;32.56;101185.84;5010337;28;20462;-72
2022/04/21 00:24:54;;;;;;;0.90;0.90;;;;;;;21.52;32.45;101192.19;5010647;28;20049;-73
2022/04/21 00:27:20;;;;;;;0.70;0.70;;;;;;;21.51;32.43;101194.13;5011605;28;20381;-73
2022/04/21 00:29:45;;;;;;;0.80;0.80;;;;;;;21.51;32.63;101191.38;5011519;28;20458;-73
2022/04/21 00:32:11;;;;;;;0.82;0.80;;;;;;;21.50;32.60;101177.81;5011772;28;20065;-72
2022/04/21 00:34:37;;;;;;;0.70;0.70;;;;;;;21.50;32.38;101181.44;5011190;28;20032;-72
2022/04/21 00:37:03;;;;;;;0.90;0.90;;;;;;;21.49;32.53;101187.19;5011394;28;20488;-73
2022/04/21 00:39:31;;;;;;;0.70;0.70;;;;;;;21.50;32.37;101186.09;5011316;28;20033;-73
2022/04/21 00:42:01;;;;;;;0.70;0.70;;;;;;;21.50;32.38;101186.09;5010320;28;20382;-73
2022/04/21 00:44:27;;;;;;;0.75;0.75;;;;;;;21.48;32.64;101186.38;5011878;28;20041;-73
2022/04/21 00:47:01;;;;;;;0.77;0.77;;;;;;;21.49;32.50;101181.69;5010947;28;20466;-73
2022/04/21 00:49:28;;;;;;;0.80;0.80;;;;;;;21.49;32.39;101184.44;5012089;28;20026;-73
2022/04/21 00:51:54;;;;;;;0.93;0.93;;;;;;;21.48;32.23;101174.50;5011233;28;20053;-73
2022/04/21 00:54:20;;;;;;;1.05;1.00;;;;;;;21.48;32.59;101183.63;5011726;28;20513;-73
2022/04/21 00:56:45;;;;;;;0.70;0.70;;;;;;;21.48;32.61;101175.34;5010025;28;20041;-73
2022/04/21 00:59:11;;;;;;;0.70;0.70;;;;;;;21.47;32.66;101179.19;5011447;28;20034;-73
2022/04/21 01:04:23;;;;;;;0.80;0.80;;;;;;;21.47;32.61;101173.69;5011651;28;20048;-73
2022/04/21 01:06:54;;;;;;;0.80;0.80;;;;;;;21.46;32.53;101177.53;5011158;28;20050;-73
2022/04/21 01:09:20;;;;;;;0.80;0.80;;;;;;;21.46;32.39;101171.19;5011365;28;20036;-73
2022/04/21 01:11:46;;;;;;;0.70;0.70;;;;;;;21.45;32.75;101170.38;5010992;28;20030;-73
2022/04/21 01:14:14;;;;;;;0.90;0.90;;;;;;;21.46;32.72;101177.53;5010967;28;20036;-73
2022/04/21 01:16:39;;;;;;;0.90;0.90;;;;;;;21.46;32.60;101174.78;5010617;28;20038;-73
2022/04/21 01:19:05;;;;;;;0.80;0.80;;;;;;;21.45;32.71;101181.44;5010877;28;20061;-72
2022/04/21 01:21:30;;;;;;;0.93;0.90;;;;;;;21.46;32.43;101183.06;5010874;28;20069;-72
2022/04/21 01:23:56;;;;;;;1.05;1.00;;;;;;;21.45;32.60;101170.38;5010544;28;20466;-72
2022/04/21 01:26:21;;;;;;;0.75;0.75;;;;;;;21.45;32.74;101172.28;5011126;28;20034;-73
2022/04/21 01:28:49;;;;;;;0.85;0.85;;;;;;;21.45;32.45;101175.91;5013186;28;20492;-73
2022/04/21 01:31:23;;;;;;;1.05;0.95;;;;;;;21.46;32.73;101176.72;5014243;28;20037;-72
2022/04/21 01:33:48;;;;;;;0.80;0.80;;;;;;;21.44;32.65;101167.91;5014488;28;20026;-73
2022/04/21 01:36:14;;;;;;;0.60;0.60;;;;;;;21.44;32.60;101177.00;5014217;28;20087;-72
2022/04/21 01:41:23;;;;;;;0.80;0.80;;;;;;;21.44;32.72;101165.97;5014123;28;20106;-73
2022/04/21 01:43:49;;;;;;;0.75;0.75;;;;;;;21.44;32.63;101167.91;5012812;28;20454;-72
2022/04/21 01:46:14;;;;;;;0.80;0.80;;;;;;;21.42;32.61;101165.44;5013994;28;20037;-73
2022/04/21 01:48:40;;;;;;;0.70;0.70;;;;;;;21.42;32.73;101170.09;5014012;28;20037;-72
2022/04/21 01:51:06;;;;;;;1.25;0.98;;;;;;;21.42;32.66;101165.44;5013663;28;20041;-72
2022/04/21 01:53:31;;;;;;;0.80;0.80;;;;;;;21.42;32.61;101165.44;5012763;28;20040;-72
2022/04/21 01:55:57;;;;;;;0.80;0.80;;;;;;;21.42;32.64;101164.59;5014417;28;20083;-72
2022/04/21 01:58:22;;;;;;;0.70;0.70;;;;;;;21.42;32.74;101159.06;5013439;28;20045;-76
2022/04/21 02:00:48;;;;;;;0.70;0.70;;;;;;;21.41;32.53;101162.91;5013823;28;20045;-77
2022/04/21 02:03:13;;;;;;;0.63;0.63;;;;;;;21.40;32.60;101159.34;5013079;28;20034;-77
2022/04/21 02:05:39;;;;;;;0.70;0.70;;;;;;;21.41;32.61;101161.00;5013799;28;20104;-77
2022/04/21 02:08:04;;;;;;;0.80;0.80;;;;;;;21.41;32.61;101160.16;5012724;28;20545;-76
2022/04/21 02:10:30;;;;;;;0.70;0.70;;;;;;;21.40;32.72;101164.88;5013371;28;20053;-77
2022/04/21 02:12:56;;;;;;;0.98;0.98;;;;;;;21.40;32.62;101164.03;5012351;28;20129;-77
2022/04/21 02:15:23;;;;;;;0.80;0.80;;;;;;;21.40;32.62;101162.09;5011981;28;20034;-76
2022/04/21 02:17:48;;;;;;;0.93;0.93;;;;;;;21.38;32.81;101161.56;5013770;28;20091;-77
2022/04/21 02:20:16;;;;;;;0.70;0.70;;;;;;;21.39;32.64;101163.19;5014024;28;20474;-77
2022/04/21 02:22:43;;;;;;;0.80;0.80;;;;;;;21.38;33.02;101167.09;5013506;28;20030;-77
2022/04/21 02:25:12;;;;;;;0.80;0.65;;;;;;;21.38;32.65;101161.56;5013436;28;20037;-76
2022/04/21 02:27:39;;;;;;;1.00;0.75;;;;;;;21.38;32.51;101167.09;5013954;28;20029;-77
2022/04/21 02:30:06;;;;;;;0.82;0.82;;;;;;;21.37;32.64;101160.72;5013397;28;20105;-77
2022/04/21 02:32:31;;;;;;;0.73;0.73;;;;;;;21.37;32.80;101166.25;5013569;28;20046;-77
2022/04/21 02:34:57;;;;;;;1.15;0.98;;;;;;;21.36;32.77;101159.09;5013027;28;20038;-76
2022/04/21 02:37:23;;;;;;;0.82;0.70;;;;;;;21.37;32.65;101159.91;5013254;28;20036;-77
2022/04/21 02:39:49;;;;;;;0.60;0.60;;;;;;;21.36;32.60;101158.25;5012440;28;20514;-77
2022/04/21 02:42:16;;;;;;;0.88;0.88;;;;;;;21.34;32.69;101158.53;5013188;28;20099;-77
2022/04/21 02:44:41;;;;;;;0.80;0.80;;;;;;;21.37;32.78;101162.66;5012830;28;20045;-77
2022/04/21 02:47:08;;;;;;;0.70;0.70;;;;;;;21.34;32.71;101158.53;5012996;28;20034;-77
2022/04/21 02:49:35;;;;;;;0.65;0.65;;;;;;;21.35;32.89;101159.38;5013068;28;20492;-77
2022/04/21 02:52:04;;;;;;;0.82;0.82;;;;;;;21.35;32.70;101162.13;5013036;28;20033;-76
2022/04/21 02:57:23;;;;;;;1.10;1.00;;;;;;;21.35;32.74;101156.63;5012978;28;20126;-77
2022/04/21 02:59:50;;;;;;;0.80;0.70;;;;;;;21.33;32.86;101156.91;5013180;28;20030;-77
2022/04/21 03:02:17;;;;;;;1.20;1.10;;;;;;;21.33;32.94;101153.28;5012779;28;20038;-76
2022/04/21 03:04:42;;;;;;;0.80;0.80;;;;;;;21.33;32.72;101151.38;5012285;28;20419;-77
2022/04/21 03:07:08;;;;;;;1.17;0.80;;;;;;;21.33;32.67;101161.56;5012184;28;20030;-76
2022/04/21 03:09:33;;;;;;;0.75;0.75;;;;;;;21.32;32.65;101149.72;5012750;28;20446;-77
2022/04/21 03:12:03;;;;;;;0.80;0.80;;;;;;;21.34;32.80;101154.94;5013051;28;20134;-77
2022/04/21 03:14:29;;;;;;;0.82;0.82;;;;;;;21.32;32.78;101151.66;5012687;28;20034;-77
2022/04/21 03:16:55;;;;;;;0.70;0.70;;;;;;;21.31;32.79;101150.81;5012311;28;20045;-77
2022/04/21 03:19:20;;;;;;;0.70;0.70;;;;;;;21.30;33.11;101149.16;5012490;28;20525;-77
2022/04/21 03:24:30;;;;;;;0.55;0.55;;;;;;;21.32;32.74;101148.91;5011632;28;20134;-77
2022/04/21 03:26:55;;;;;;;0.70;0.70;;;;;;;21.30;32.75;101151.91;5012793;28;20034;-77
2022/04/21 03:29:21;;;;;;;0.73;0.73;;;;;;;21.32;32.95;101154.41;5011266;28;20075;-77
2022/04/21 03:31:48;;;;;;;0.60;0.60;;;;;;;21.32;32.83;101157.19;5011564;28;20034;-77
2022/04/21 03:34:16;;;;;;;0.73;0.73;;;;;;;21.30;32.73;101153.84;5012432;28;20038;-77
2022/04/21 03:36:52;;;;;;;1.20;0.77;;;;;;;21.30;33.09;101157.44;5011061;28;20026;-77
2022/04/21 03:39:22;;;;;;;0.82;0.80;;;;;;;21.30;33.08;101151.91;5012306;28;20026;-77
2022/04/21 03:41:53;;;;;;;1.17;0.63;;;;;;;21.30;32.83;101159.38;5012225;28;20068;-77
2022/04/21 03:44:22;;;;;;;1.10;1.00;;;;;;;21.30;33.02;101149.16;5012578;28;20064;-77
2022/04/21 03:46:47;;;;;;;1.00;1.00;;;;;;;21.30;32.70;101153.84;5012123;28;20030;-77
2022/04/21 03:49:12;;;;;;;0.60;0.60;;;;;;;21.29;32.80;101161.31;5012195;28;20381;-77
2022/04/21 03:51:38;;;;;;;0.75;0.73;;;;;;;21.29;33.02;101164.06;5009508;28;20033;-77
2022/04/21 03:54:04;;;;;;;0.70;0.70;;;;;;;21.29;32.80;101157.72;5012623;28;20075;-77
2022/04/21 03:56:29;;;;;;;0.88;0.80;;;;;;;21.28;33.00;101156.91;5010485;28;20034;-77
2022/04/21 03:58:55;;;;;;;0.70;0.70;;;;;;;21.29;32.72;101163.22;5011977;28;20033;-77
2022/04/21 04:01:20;;;;;;;0.77;0.77;;;;;;;21.27;32.93;101162.69;5012261;28;20438;-77
2022/04/21 04:03:46;;;;;;;0.75;0.75;;;;;;;21.28;33.23;101161.59;5012461;28;20034;-77
2022/04/21 04:11:39;;;;;;;0.98;0.93;;;;;;;21.26;32.76;101167.41;5012124;28;20045;-78
2022/04/21 04:14:05;;;;;;;0.70;0.70;;;;;;;21.27;32.81;101166.28;5011803;28;20134;-77
2022/04/21 04:16:35;;;;;;;0.70;0.70;;;;;;;21.26;32.72;101159.13;5011955;28;20474;-77
2022/04/21 04:19:08;;;;;;;0.80;0.80;;;;;;;21.27;32.88;101157.19;5010766;28;20068;-77
2022/04/21 04:21:37;;;;;;;0.82;0.82;;;;;;;21.27;32.97;101157.19;5011422;28;20489;-78
2022/04/21 04:24:04;;;;;;;0.82;0.82;;;;;;;21.25;32.83;101160.22;5026688;28;20063;-78
2022/04/21 04:26:33;;;;;;;0.80;0.80;;;;;;;21.26;33.05;101156.34;5012361;28;20034;-78
2022/04/21 04:28:59;;;;;;;0.93;0.80;;;;;;;21.26;32.85;101152.75;5011251;28;20513;-78
2022/04/21 04:31:25;;;;;;;0.80;0.80;;;;;;;21.25;32.87;101160.22;5011805;28;20030;-78
2022/04/21 04:33:51;;;;;;;0.75;0.75;;;;;;;21.25;32.81;101154.69;5011467;28;20048;-77
2022/04/21 04:36:16;;;;;;;0.90;0.90;;;;;;;21.25;32.92;101162.16;5011220;28;20458;-77
2022/04/21 04:38:44;;;;;;;0.63;0.63;;;;;;;21.24;32.93;101163.25;5011838;28;20026;-78
2022/04/21 04:43:54;;;;;;;0.80;0.80;;;;;;;21.25;33.06;101167.69;5011904;28;20087;-78
2022/04/21 04:46:38;;;;;;;0.63;0.63;;;;;;;21.25;33.05;101170.44;5010325;28;20041;-77
2022/04/21 04:49:08;;;;;;;1.00;1.00;;;;;;;21.25;32.64;101175.97;5011283;28;20034;-77
2022/04/21 04:51:37;;;;;;;0.80;0.63;;;;;;;21.25;32.81;101173.19;5010919;28;20486;-77
2022/04/21 04:54:05;;;;;;;0.70;0.70;;;;;;;21.25;32.89;101175.97;5011139;28;20034;-77
2022/04/21 04:56:30;;;;;;;0.77;0.77;;;;;;;21.25;33.02;101181.47;5011182;28;20053;-76
2022/04/21 04:58:56;;;;;;;0.75;0.75;;;;;;;21.24;32.85;101177.88;5011097;28;20068;-76
2022/04/21 05:01:35;;;;;;;1.02;0.93;;;;;;;21.24;33.04;101177.88;5011417;28;20058;-78
2022/04/21 05:04:04;;;;;;;0.80;0.80;;;;;;;21.23;32.92;101170.72;5017662;28;20037;-78
2022/04/21 05:06:35;;;;;;;0.90;0.90;;;;;;;21.23;32.83;101175.38;5017308;28;20061;-77
2022/04/21 05:09:00;;;;;;;0.73;0.73;;;;;;;21.24;32.88;101171.53;5017676;28;20038;-78
2022/04/21 05:11:25;;;;;;;1.10;1.00;;;;;;;21.23;32.86;101173.47;5017873;28;20038;-83
2022/04/21 05:13:51;;;;;;;1.05;0.85;;;;;;;21.23;32.57;101172.63;5016366;28;20396;-85
2022/04/21 05:16:16;;;;;;;1.38;1.33;;;;;;;21.14;31.02;101169.63;5017857;28;20454;-77
2022/04/21 05:18:42;;;;;;;1.65;1.55;;;;;;;20.92;31.22;101173.53;5000201;28;20034;-74
2022/04/21 05:21:08;;;;;;;1.95;1.85;;;;;;;20.67;30.80;101169.66;4999824;28;20515;-75
2022/04/21 05:23:34;;;;;;;2.40;2.20;;;;;;;20.47;32.35;101161.34;5017461;28;20032;-77
2022/04/21 05:26:01;;;;;;;2.05;1.95;;;;;;;20.30;31.36;101170.72;5017463;28;20060;-82
2022/04/21 05:28:26;;;;;;;2.47;2.28;;;;;;;20.15;31.37;101174.25;5017669;28;20049;-82
2022/04/21 05:30:55;;;;;;;2.38;2.20;;;;;;;19.99;31.32;101172.56;5017640;28;20034;-83
2022/04/21 05:33:24;;;;;;;2.55;2.35;;;;;;;19.85;31.61;101163.97;5016690;28;20220;-81
2022/04/21 05:35:50;;;;;;;2.55;2.35;;;;;;;19.74;31.81;101168.59;5018057;28;20049;-81
2022/04/21 05:38:16;;;;;;;2.30;2.20;;;;;;;19.63;31.86;101158.63;5017204;28;20458;-84
2022/04/21 05:40:43;;;;;;;2.78;2.58;;;;;;;19.57;31.86;101168.78;5016112;28;20113;-84
2022/04/21 05:43:11;;;;;;;2.30;2.20;;;;;;;19.51;31.90;101163.53;5017496;28;20032;-83
2022/04/21 05:45:37;;;;;;;2.50;2.30;;;;;;;19.44;31.90;101164.63;5017625;28;20458;-84
2022/04/21 05:48:03;;;;;;;2.60;2.40;;;;;;;19.37;31.87;101158.53;5017138;28;20052;-83
2022/04/21 05:50:28;;;;;;;2.63;2.28;;;;;;;19.31;32.09;101165.09;5017114;28;20030;-86
2022/04/21 05:53:01;;;;;;;2.70;2.50;;;;;;;19.26;32.01;101173.31;5015870;28;20038;-82
2022/04/21 05:55:27;;;;;;;2.30;2.20;;;;;;;19.22;32.19;101163.91;5016132;28;20026;-84
2022/04/21 05:57:52;;;;;;;2.60;2.40;;;;;;;19.18;32.27;101168.31;5016996;28;20462;-84
2022/04/21 06:00:17;;;;;;;2.80;2.47;;;;;;;19.14;32.32;101172.69;5016239;28;20044;-83
2022/04/21 06:02:43;;;;;;;2.53;2.33;;;;;;;19.12;32.28;101164.72;5016481;28;20034;-81
2022/04/21 06:05:08;;;;;;;2.92;2.58;;;;;;;19.09;32.29;101168.00;5015127;28;20498;-80
2022/04/21 06:07:34;;;;;;;2.88;2.67;;;;;;;19.06;32.32;101172.09;5017237;28;20034;-83
2022/04/21 06:09:59;;;;;;;2.70;2.50;;;;;;;19.04;32.39;101171.50;5016869;28;20038;-81
2022/04/21 06:12:25;;;;;;;2.47;2.28;;;;;;;19.04;32.60;101167.94;5015714;28;20030;-84
2022/04/21 06:14:51;;;;;;;2.58;2.38;;;;;;;19.03;32.09;101163.53;5013674;28;20393;-82
2022/04/21 06:17:17;;;;;;;2.63;2.40;;;;;;;19.01;32.31;101169.28;5013256;28;20106;-83
2022/04/21 06:19:42;;;;;;;2.70;2.50;;;;;;;19.01;32.34;101169.28;5013388;28;20469;-83
2022/04/21 06:22:08;;;;;;;2.95;2.47;;;;;;;18.99;32.38;101174.22;5012577;28;20143;-82
2022/04/21 06:24:34;;;;;;;2.95;2.50;;;;;;;18.97;32.35;101164.59;5045251;28;20470;-82
2022/04/21 06:26:59;;;;;;;2.60;2.40;;;;;;;18.93;32.60;101162.38;5013410;28;20091;-84
2022/04/21 06:29:25;;;;;;;2.78;2.45;;;;;;;18.93;32.71;101167.03;5011983;28;20037;-84
2022/04/21 06:31:50;;;;;;;3.45;2.38;;;;;;;18.93;32.71;101161.53;5013415;28;20041;-84
2022/04/21 06:34:16;;;;;;;2.90;2.70;;;;;;;18.96;32.88;101161.00;5013245;28;20030;-81
2022/04/21 06:36:41;;;;;;;3.22;2.55;;;;;;;19.05;32.55;101161.34;4996353;28;20033;-81
2022/04/21 06:39:07;;;;;;;2.72;2.53;;;;;;;19.17;32.48;101167.47;5011733;28;20117;-81
2022/04/21 06:41:33;;;;;;;2.72;2.53;;;;;;;19.28;32.41;101163.69;5013201;28;20039;-81
2022/04/21 06:49:27;;;;;;;2.28;2.08;;;;;;;19.61;31.82;101158.91;5013115;28;20048;-81
2022/04/21 06:51:53;;;;;;;2.17;2.05;;;;;;;19.68;31.76;101155.91;5012752;28;20113;-82
2022/04/21 06:54:18;;;;;;;2.40;2.20;;;;;;;19.76;31.64;101149.06;4995540;28;20396;-81
2022/04/21 06:56:48;;;;;;;2.40;2.30;;;;;;;19.83;31.71;101154.31;5012908;28;20477;-80
2022/04/21 06:59:17;;;;;;;2.58;2.38;;;;;;;19.88;31.73;101157.09;5011786;28;20030;-81
2022/04/21 07:01:43;;;;;;;2.40;2.20;;;;;;;19.93;31.53;101148.84;5011779;28;20466;-80
2022/04/21 07:04:08;;;;;;;2.13;1.92;;;;;;;19.96;31.22;101151.91;5012591;28;20029;-81
2022/04/21 07:06:34;;;;;;;2.20;2.00;;;;;;;20.00;31.20;101149.41;5012572;28;20050;-82
2022/04/21 07:08:59;;;;;;;2.00;1.90;;;;;;;20.03;31.32;101151.63;5011643;28;20084;-82
2022/04/21 07:11:25;;;;;;;1.95;1.85;;;;;;;20.06;31.52;101156.59;5012326;28;20075;-81
2022/04/21 07:13:51;;;;;;;2.00;1.90;;;;;;;20.08;31.22;101148.91;5011475;28;20069;-81
2022/04/21 07:16:17;;;;;;;2.17;2.08;;;;;;;20.10;31.20;101156.91;5011208;28;20034;-82
2022/04/21 07:18:43;;;;;;;1.88;1.73;;;;;;;20.13;31.62;101156.34;5012839;28;20461;-82
2022/04/21 07:21:09;;;;;;;1.90;1.80;;;;;;;20.14;31.38;101150.56;5012684;28;20112;-81
2022/04/21 07:23:35;;;;;;;1.95;1.85;;;;;;;20.16;31.25;101153.84;5012631;28;20034;-81
2022/04/21 07:26:01;;;;;;;1.83;1.73;;;;;;;20.19;31.04;101157.19;5012617;28;20038;-82
2022/04/21 07:28:26;;;;;;;2.00;1.90;;;;;;;20.21;31.46;101146.72;5012260;28;20060;-82
2022/04/21 07:30:52;;;;;;;1.80;1.70;;;;;;;20.22;31.11;101157.47;5012469;28;20070;-82
2022/04/21 07:33:18;;;;;;;2.08;1.73;;;;;;;20.24;31.27;101159.94;5012472;28;20463;-82
2022/04/21 07:35:43;;;;;;;2.08;1.85;;;;;;;20.24;30.95;101163.53;5012393;28;20065;-81
2022/04/21 07:38:09;;;;;;;2.28;2.08;;;;;;;20.27;31.21;101160.25;5012302;28;20065;-82
2022/04/21 07:40:36;;;;;;;1.77;1.67;;;;;;;20.28;30.92;101164.63;5012577;28;20494;-82
2022/04/21 07:43:03;;;;;;;1.98;1.88;;;;;;;20.29;31.04;101169.03;4995313;28;20053;-82
2022/04/21 07:45:30;;;;;;;1.90;1.80;;;;;;;20.30;31.04;101165.19;5012266;28;20086;-82
2022/04/21 07:47:55;;;;;;;1.95;1.85;;;;;;;20.30;30.80;101154.19;5012177;28;20053;-82
2022/04/21 07:50:24;;;;;;;2.05;1.95;;;;;;;20.32;30.95;101162.16;5011923;28;20073;-82
2022/04/21 07:55:34;;;;;;;1.90;1.80;;;;;;;20.34;30.96;101159.97;5012385;28;20049;-81
2022/04/21 07:57:59;;;;;;;2.08;1.90;;;;;;;20.35;30.72;101147.03;5011247;28;20038;-82
2022/04/21 08:00:24;;;;;;;1.90;1.80;;;;;;;20.36;30.66;101156.94;5012028;28;20157;-78
2022/04/21 08:02:51;;;;;;;2.85;1.90;;;;;;;20.36;31.76;101152.25;5010859;28;20065;-77
2022/04/21 08:05:18;;;;;;;1.67;1.58;;;;;;;20.36;31.61;101152.25;5011782;28;20082;-77
2022/04/21 08:07:46;;;;;;;1.70;1.60;;;;;;;20.36;31.74;101152.25;5012500;28;20073;-76
2022/04/21 08:10:13;;;;;;;2.35;1.67;;;;;;;20.39;31.36;101150.88;5012333;28;20068;-76
2022/04/21 08:12:44;;;;;;;2.58;1.90;;;;;;;20.40;31.18;101153.34;5011803;28;20113;-75
2022/04/21 08:15:12;;;;;;;1.80;1.70;;;;;;;20.41;31.27;101157.75;5012018;28;20041;-75
2022/04/21 08:17:38;;;;;;;1.90;1.80;;;;;;;20.43;31.04;101157.47;5010061;28;20037;-75
2022/04/21 08:20:06;;;;;;;2.17;2.03;;;;;;;20.45;30.80;101161.63;5011628;28;20459;-77
2022/04/21 08:22:32;;;;;;;1.80;1.70;;;;;;;20.45;30.52;101158.06;5011685;28;20045;-77
2022/04/21 08:33:10;;;;;;;1.92;1.80;;;;;;;20.48;30.89;101165.78;5011861;28;20090;-75
2022/04/21 08:35:35;;;;;;;1.80;1.65;;;;;;;20.49;31.62;101159.13;5011496;28;20053;-75
2022/04/21 08:38:01;;;;;;;2.25;1.75;;;;;;;20.50;31.91;101160.81;4993938;28;20080;-75
2022/04/21 08:40:28;;;;;;;1.70;1.60;;;;;;;20.51;31.39;101163.28;5010265;28;20029;-76
2022/04/21 08:42:54;;;;;;;1.70;1.60;;;;;;;20.51;31.38;101155.00;5011959;28;20041;-75
2022/04/21 08:45:20;;;;;;;2.58;1.55;;;;;;;20.52;31.00;101172.38;5011875;28;20056;-77
2022/04/21 08:47:48;;;;;;;1.52;1.42;;;;;;;20.53;31.03;101156.69;5010131;28;20465;-76
2022/04/21 08:50:16;;;;;;;2.17;1.58;;;;;;;20.54;31.13;101158.34;5011058;28;20121;-76
2022/04/21 08:52:43;;;;;;;1.98;1.88;;;;;;;20.53;31.16;101156.69;5010108;28;20072;-76
2022/04/21 08:55:11;;;;;;;1.60;1.50;;;;;;;20.54;31.12;101150.06;5011019;28;20102;-77
2022/04/21 08:57:37;;;;;;;1.70;1.60;;;;;;;20.53;31.13;101149.22;5010984;28;20036;-75
2022/04/21 09:00:05;;;;;;;1.40;1.40;;;;;;;20.54;31.18;101150.06;5011359;28;20029;-75
2022/04/21 09:02:41;;;;;;;1.70;1.60;;;;;;;20.56;31.48;101145.09;5010210;28;20069;-76
2022/04/21 09:05:08;;;;;;;1.90;1.80;;;;;;;20.57;31.79;101144.00;5009871;28;20030;-76
2022/04/21 09:07:46;;;;;;;1.67;1.58;;;;;;;20.56;31.58;101161.63;5011640;28;20061;-76
2022/04/21 09:10:13;;;;;;;1.55;1.45;;;;;;;20.54;31.56;101134.34;5011077;28;20136;-75
2022/04/21 09:12:45;;;;;;;1.40;1.30;;;;;;;20.55;31.86;101144.28;5010630;28;20030;-68
2022/04/21 09:15:15;;;;;;;1.58;1.42;;;;;;;20.55;31.85;101138.78;5011061;28;20030;-77
2022/04/21 09:17:42;;;;;;;1.38;1.27;;;;;;;20.56;31.91;101134.91;5009990;28;20119;-79
2022/04/21 09:20:09;;;;;;;1.42;1.33;;;;;;;20.57;31.91;101132.97;5010019;28;20030;-77
2022/04/21 09:22:34;;;;;;;1.38;1.27;;;;;;;20.56;31.66;101134.91;5010843;28;20164;-79
2022/04/21 09:25:00;;;;;;;1.17;1.17;;;;;;;20.56;31.59;101125.81;5011410;28;20458;-79
2022/04/21 09:27:59;;;;;;;1.50;1.40;;;;;;;20.59;31.54;101122.50;5009842;28;20521;-78
2022/04/21 09:30:25;;;;;;;1.17;1.17;;;;;;;20.55;31.65;101113.97;4978133;28;20250;-79
2022/04/21 09:32:53;;;;;;;1.25;1.00;;;;;;;20.56;31.46;101112.03;5009569;28;20037;-79
2022/04/21 09:35:20;;;;;;;1.48;1.38;;;;;;;20.55;31.29;101113.13;5011289;28;20061;-79
2022/04/21 09:37:48;;;;;;;1.30;1.20;;;;;;;20.56;31.11;101115.59;5009579;28;20038;-79
2022/04/21 09:40:15;;;;;;;1.23;0.90;;;;;;;20.56;31.47;101112.03;5010628;28;20045;-79
2022/04/21 09:42:41;;;;;;;1.10;1.10;;;;;;;20.56;31.08;101128.56;5010677;28;20061;-78
2022/04/21 09:47:55;;;;;;;1.00;1.00;;;;;;;20.54;31.00;101120.56;5010820;28;20053;-79
2022/04/21 09:50:24;;;;;;;1.10;1.00;;;;;;;20.54;31.06;101126.09;5012315;28;20046;-79
2022/04/21 09:52:51;;;;;;;1.20;1.20;;;;;;;20.54;30.60;101117.81;5013993;28;20045;-75
2022/04/21 09:55:21;;;;;;;0.95;0.95;;;;;;;20.56;31.07;101109.28;5014134;28;20066;-79
2022/04/21 09:57:51;;;;;;;1.23;1.20;;;;;;;20.55;30.98;101113.13;5013184;28;20033;-78
2022/04/21 10:00:21;;;;;;;1.00;1.00;;;;;;;20.56;30.88;101114.78;5013722;28;20030;-78
2022/04/21 10:02:49;;;;;;;1.20;1.10;;;;;;;20.56;30.64;101103.75;5013789;28;20126;-77
2022/04/21 10:05:15;;;;;;;0.90;0.90;;;;;;;20.56;30.61;101117.53;5012225;28;20034;-78
2022/04/21 10:07:41;;;;;;;0.95;0.90;;;;;;;20.56;30.05;101095.50;5012562;28;20050;-78
2022/04/21 10:10:07;;;;;;;1.20;1.20;;;;;;;20.55;30.41;101094.66;5014012;28;20046;-78
2022/04/21 10:12:33;;;;;;;1.50;1.40;;;;;;;20.55;30.10;101089.16;5014201;28;20030;-78
2022/04/21 10:15:00;;;;;;;1.30;1.20;;;;;;;20.56;29.90;101093.53;5012353;28;20034;-78
2022/04/21 10:17:25;;;;;;;0.90;0.90;;;;;;;20.56;29.93;101096.31;5013223;28;20531;-78
2022/04/21 10:19:52;;;;;;;1.20;1.02;;;;;;;20.57;29.74;101097.16;5012243;28;20034;-78
2022/04/21 10:22:19;;;;;;;0.90;0.90;;;;;;;20.57;29.50;101081.44;5014068;28;20046;-79
2022/04/21 10:24:46;;;;;;;0.90;0.90;;;;;;;20.58;29.62;101088.59;5014014;28;20030;-78
2022/04/21 10:27:49;;;;;;;2.25;1.15;;;;;;;20.61;29.90;101081.69;5012121;28;20037;-78
2022/04/21 10:30:19;;;;;;;0.88;0.88;;;;;;;20.59;29.43;101093.00;5013642;28;20055;-78
2022/04/21 10:32:49;;;;;;;1.00;0.88;;;;;;;20.60;29.23;101091.91;5013024;28;20033;-79
2022/04/21 10:35:28;;;;;;;1.17;1.10;;;;;;;20.61;29.01;101073.41;5012118;28;20037;-78
2022/04/21 10:38:12;;;;;;;0.80;0.80;;;;;;;20.62;29.56;101084.16;5013121;28;20044;-78
2022/04/21 10:41:03;;;;;;;1.23;0.90;;;;;;;20.62;29.55;101073.13;5012846;28;20037;-78
2022/04/21 10:43:47;;;;;;;1.38;1.00;;;;;;;20.64;29.39;101062.69;5013008;28;20103;-78
2022/04/21 10:46:29;;;;;;;0.70;0.70;;;;;;;20.62;29.22;101067.63;5013320;28;20030;-78
2022/04/21 10:48:55;;;;;;;0.60;0.60;;;;;;;20.62;28.73;101070.38;5013148;28;20034;-78
2022/04/21 10:57:12;;;;;;;1.00;1.00;;;;;;;20.65;29.07;101069.84;5013110;28;20026;-78
2022/04/21 10:57:16;;;;;;;0.70;0.70;;;;;;;20.63;28.16;101080.31;5013294;28;20095;-78
2022/04/21 11:00:08;;;;;;;0.82;0.82;;;;;;;20.66;28.88;101051.41;5012273;28;20046;-78
2022/04/21 11:02:40;;;;;;;;;;;;;;;20.66;29.22;101062.44;5013618;28;20054;-78
2022/04/21 11:05:26;;;;;;;1.85;0.80;;;;;;;20.66;29.38;101066.00;5012546;28;19909;-78
2022/04/21 11:07:51;;;;;;;1.05;0.77;;;;;;;20.65;27.60;101053.31;4995621;28;20512;-79
2022/04/21 11:10:44;;;;;;;1.48;0.65;;;;;;;20.68;28.65;101044.50;5012775;28;20045;-79
2022/04/21 11:13:11;;;;;;;0.80;0.80;;;;;;;20.66;27.64;101041.19;5006267;28;20078;-78
2022/04/21 11:15:49;;;;;;;0.80;0.80;;;;;;;20.66;27.60;101043.94;5012718;28;20550;-78
2022/04/21 11:18:19;;;;;;;1.08;1.00;;;;;;;20.68;27.57;101054.69;5011501;28;20034;-78
2022/04/21 11:20:49;;;;;;;1.30;0.90;;;;;;;20.68;27.36;101044.50;5012394;28;20026;-78
2022/04/21 11:23:24;;;;;;;0.70;0.70;;;;;;;20.70;27.09;101035.13;5012371;28;20049;-79
2022/04/21 11:26:05;;;;;;;0.73;0.73;;;;;;;20.71;27.44;101028.50;5012544;28;20526;-78
2022/04/21 11:28:31;;;;;;;0.75;0.75;;;;;;;20.70;26.72;101022.19;5011597;28;20034;-81
2022/04/21 11:30:57;;;;;;;0.80;0.80;;;;;;;20.70;26.79;101007.56;5012421;28;20458;-81
2022/04/21 11:33:23;;;;;;;0.80;0.80;;;;;;;20.70;26.70;101005.63;5012471;28;20034;-82
2022/04/21 11:35:48;;;;;;;0.80;0.80;;;;;;;20.70;26.42;101010.31;5012257;28;20167;-82
2022/04/21 11:38:14;;;;;;;0.70;0.70;;;;;;;20.70;26.47;101021.34;5012909;28;20043;-82
2022/04/21 11:40:40;;;;;;;0.80;0.80;;;;;;;20.70;26.14;101010.31;5012731;28;20037;-82
2022/04/21 11:43:05;;;;;;;0.68;0.68;;;;;;;20.70;25.90;101002.88;5011405;28;20022;-82
2022/04/21 11:45:35;;;;;;;0.60;0.60;;;;;;;20.68;26.26;101003.16;5012387;28;20363;-82
2022/04/21 11:48:08;;;;;;;0.50;0.50;;;;;;;20.68;26.00;101000.41;5011151;28;20429;-81
2022/04/21 11:50:34;;;;;;;0.95;0.95;;;;;;;20.70;25.78;101002.88;5012236;28;20030;-82
2022/04/21 11:53:11;;;;;;;0.80;0.80;;;;;;;20.71;26.99;101018.28;5012197;28;20475;-82
2022/04/21 11:55:36;;;;;;;0.77;0.77;;;;;;;20.69;26.17;101006.72;5012264;28;20038;-82
2022/04/21 11:58:02;;;;;;;0.90;0.90;;;;;;;20.70;25.75;101005.63;5012491;28;20040;-82
2022/04/21 12:08:51;;;;;;;1.00;0.75;;;;;;;20.70;26.15;101002.88;5011586;28;20234;-83
2022/04/21 12:11:22;;;;;;;0.70;0.70;;;;;;;20.71;26.29;101001.75;5010379;28;20030;-80
2022/04/21 12:13:49;;;;;;;0.77;0.77;;;;;;;20.72;28.12;100991.56;5011572;28;20083;-76
2022/04/21 12:16:33;;;;;;;0.60;0.60;;;;;;;;;;5011900;28;20037;-80
2022/04/21 12:19:08;;;;;;;1.35;1.13;;;;;;;;;;5011690;28;20117;-80
2022/04/21 12:21:34;;;;;;;0.73;0.73;;;;;;;;;;5012056;28;20030;-80